Time;durP1;ratioP1;P1;durP2;ratioP2;P2;SDS_P1;SDS_P2;PMS_P1;PMS_P2;Temp;Humidity;BMP_temperature;BMP_pressure;BME280_temperature;BME280_humidity;BME280_pressure;Samples;Min_cycle;Max_cycle;Signal;HPM_P1;HPM_P2
2021/03/03 00:03:07;;;;;;;;;;;2.20;99.90;;;;;;6974643;28;19916;-65
2021/03/03 00:06:28;;;;;;;;;;;2.10;99.90;;;;;;6966357;28;19921;-66
2021/03/03 00:09:49;;;;;;;;;;;2.10;99.90;;;;;;6969153;28;19921;-65
2021/03/03 00:13:09;;;;;;;;;;;2.00;99.90;;;;;;6965743;28;19917;-67
2021/03/03 00:16:30;;;;;;;;;;;2.10;99.90;;;;;;6966104;28;19974;-65
2021/03/03 00:19:51;;;;;;;;;;;2.30;99.90;;;;;;6964991;28;19913;-65
2021/03/03 00:23:11;;;;;;;;;;;2.50;99.90;;;;;;6965441;28;19913;-67
2021/03/03 00:26:32;;;;;;;;;;;2.40;99.90;;;;;;6965042;28;20281;-64
2021/03/03 00:29:53;;;;;;;;;;;2.40;99.90;;;;;;6964209;28;20265;-65
2021/03/03 00:33:14;;;;;;;;;;;2.30;99.90;;;;;;6964129;28;20371;-66
2021/03/03 00:36:34;;;;;;;;;;;2.20;99.90;;;;;;6965768;28;20037;-64
2021/03/03 00:39:55;;;;;;;;;;;2.20;99.90;;;;;;6964032;28;19920;-67
2021/03/03 00:43:16;;;;;;;;;;;2.30;99.90;;;;;;6965947;28;19927;-65
2021/03/03 00:46:36;;;;;;;;;;;2.40;99.90;;;;;;6965462;28;19917;-66
2021/03/03 00:49:59;;;;;;;;;;;2.60;99.90;;;;;;6967113;28;20391;-65
2021/03/03 00:53:21;;;;;;;;;;;2.70;99.90;;;;;;6947848;28;20354;-67
2021/03/03 00:56:42;;;;;;;;;;;2.70;99.90;;;;;;6946908;28;19917;-65
2021/03/03 01:00:07;;;;;;;;;;;2.60;99.90;;;;;;6940193;28;19916;-65
2021/03/03 01:03:28;;;;;;;;;;;2.50;99.90;;;;;;6964801;28;19913;-66
2021/03/03 01:06:56;;;;;;;;;;;2.30;99.90;;;;;;6947873;28;20779;-65
2021/03/03 01:10:17;;;;;;;;;;;2.30;99.90;;;;;;6950728;28;19956;-65
2021/03/03 01:13:42;;;;;;;;;;;2.30;99.90;;;;;;6946888;28;19913;-66
2021/03/03 01:17:07;;;;;;;;;;;2.40;99.90;;;;;;6940543;28;19916;-64
2021/03/03 01:20:32;;;;;;;;;;;2.30;99.90;;;;;;6946879;28;19919;-65
2021/03/03 01:23:52;;;;;;;;;;;2.20;99.90;;;;;;6964159;28;19917;-66
2021/03/03 01:27:13;;;;;;;;;;;2.10;99.90;;;;;;6964741;28;19970;-66
2021/03/03 01:30:34;;;;;;;;;;;2.10;99.90;;;;;;6964140;28;20391;-65
2021/03/03 01:33:54;;;;;;;;;;;2.10;99.90;;;;;;6964110;28;20379;-64
2021/03/03 01:37:15;;;;;;;;;;;2.10;99.90;;;;;;6955440;28;19922;-66
2021/03/03 01:40:35;;;;;;;;;;;2.00;99.90;;;;;;6966880;28;19917;-68
2021/03/03 01:43:56;;;;;;;;;;;2.00;99.90;;;;;;6969315;28;20564;-66
2021/03/03 01:47:17;;;;;;;;;;;1.90;99.90;;;;;;6969697;28;19916;-65
2021/03/03 01:50:38;;;;;;;;;;;1.90;99.90;;;;;;6968890;28;20427;-65
2021/03/03 01:53:59;;;;;;;;;;;1.90;99.90;;;;;;6968532;28;19946;-65
2021/03/03 01:57:21;;;;;;;;;;;1.90;99.90;;;;;;6969446;28;19913;-65
2021/03/03 02:00:41;;;;;;;;;;;1.90;99.90;;;;;;6968679;28;19921;-67
2021/03/03 02:04:03;;;;;;;;;;;1.80;99.90;;;;;;6969767;28;19924;-66
2021/03/03 02:07:33;;;;;;;;;;;1.80;99.90;;;;;;6967926;28;20020;-65
2021/03/03 02:11:00;;;;;;;;;;;1.80;99.90;;;;;;6971824;28;19924;-66
2021/03/03 02:14:23;;;;;;;;;;;1.80;99.90;;;;;;6968667;28;19924;-65
2021/03/03 02:17:44;;;;;;;;;;;1.80;99.90;;;;;;6968675;28;19938;-65
2021/03/03 02:21:09;;;;;;;;;;;1.70;99.90;;;;;;6972799;28;20057;-65
2021/03/03 02:24:36;;;;;;;;;;;1.80;99.90;;;;;;6971839;28;19973;-65
2021/03/03 02:27:59;;;;;;;;;;;1.70;99.90;;;;;;6968183;28;19921;-65
2021/03/03 02:31:20;;;;;;;;;;;1.70;99.90;;;;;;6968456;28;19912;-65
2021/03/03 02:34:41;;;;;;;;;;;1.60;99.90;;;;;;6967777;28;20726;-66
2021/03/03 02:38:03;;;;;;;;;;;1.70;99.90;;;;;;6968685;28;19916;-64
2021/03/03 02:41:24;;;;;;;;;;;1.60;99.90;;;;;;6967544;28;19913;-66
2021/03/03 02:44:45;;;;;;;;;;;1.60;99.90;;;;;;6970311;28;19928;-68
2021/03/03 02:48:07;;;;;;;;;;;1.50;99.90;;;;;;6970036;28;20474;-67
2021/03/03 02:51:28;;;;;;;;;;;1.50;99.90;;;;;;6968495;28;19913;-67
2021/03/03 02:54:48;;;;;;;;;;;1.50;99.90;;;;;;6968894;28;20490;-67
2021/03/03 02:58:09;;;;;;;;;;;1.50;99.90;;;;;;6968792;28;19951;-67
2021/03/03 03:01:33;;;;;;;;;;;1.40;99.90;;;;;;6968866;28;19913;-67
2021/03/03 03:04:55;;;;;;;;;;;1.60;99.90;;;;;;6968930;28;20283;-66
2021/03/03 03:08:17;;;;;;;;;;;1.50;99.90;;;;;;6971484;28;20611;-66
2021/03/03 03:11:41;;;;;;;;;;;1.40;99.90;;;;;;6969569;28;19913;-66
2021/03/03 03:15:03;;;;;;;;;;;1.40;99.90;;;;;;6968898;28;19919;-67
2021/03/03 03:18:29;;;;;;;;;;;1.40;99.90;;;;;;6968698;28;20353;-65
2021/03/03 03:21:50;;;;;;;;;;;1.40;99.90;;;;;;6967965;28;19995;-65
2021/03/03 03:25:11;;;;;;;;;;;1.40;99.90;;;;;;6967550;28;19925;-66
2021/03/03 03:28:35;;;;;;;;;;;1.50;99.90;;;;;;6968566;28;19921;-65
2021/03/03 03:31:56;;;;;;;;;;;1.60;99.90;;;;;;6967647;28;19913;-66
2021/03/03 03:35:17;;;;;;;;;;;1.60;99.90;;;;;;6982791;28;19935;-67
2021/03/03 03:38:38;;;;;;;;;;;1.70;99.90;;;;;;6976544;28;19947;-65
2021/03/03 03:41:58;;;;;;;;;;;1.70;99.90;;;;;;6978671;28;19912;-66
2021/03/03 03:45:20;;;;;;;;;;;1.70;99.90;;;;;;6979512;28;19966;-66
2021/03/03 03:48:40;;;;;;;;;;;1.90;99.90;;;;;;6977520;28;20410;-66
2021/03/03 03:52:01;;;;;;;;;;;1.90;99.90;;;;;;6976829;28;19938;-67
2021/03/03 03:55:38;;;;;;;;;;;2.00;99.90;;;;;;6975283;28;19970;-65
2021/03/03 03:58:59;;;;;;;;;;;2.00;99.90;;;;;;6963589;28;19924;-65
2021/03/03 04:02:19;;;;;;;;;;;1.80;99.90;;;;;;6978778;28;19912;-65
2021/03/03 04:05:40;;;;;;;;;;;1.70;99.90;;;;;;6976314;28;19913;-65
2021/03/03 04:09:00;;;;;;;;;;;1.50;99.90;;;;;;6981080;28;19917;-67
2021/03/03 04:12:21;;;;;;;;;;;1.60;99.90;;;;;;6974744;28;19920;-67
2021/03/03 04:15:42;;;;;;;;;;;1.70;99.90;;;;;;6980335;28;20322;-65
2021/03/03 04:19:03;;;;;;;;;;;1.60;99.90;;;;;;6974870;28;19935;-66
2021/03/03 04:22:23;;;;;;;;;;;1.70;99.90;;;;;;6976104;28;19924;-65
2021/03/03 04:25:44;;;;;;;;;;;1.60;99.90;;;;;;6974778;28;19917;-66
2021/03/03 04:29:05;;;;;;;;;;;1.60;99.90;;;;;;6982035;28;19963;-65
2021/03/03 04:32:25;;;;;;;;;;;1.60;99.90;;;;;;6986078;28;19939;-65
2021/03/03 04:35:46;;;;;;;;;;;1.60;99.90;;;;;;6988502;28;19920;-66
2021/03/03 04:39:06;;;;;;;;;;;1.60;99.90;;;;;;6983885;28;19924;-67
2021/03/03 04:42:27;;;;;;;;;;;1.60;99.90;;;;;;6976855;28;19917;-65
2021/03/03 04:45:48;;;;;;;;;;;1.50;99.90;;;;;;6976574;28;20352;-65
2021/03/03 04:49:08;;;;;;;;;;;1.50;99.90;;;;;;6978794;28;20287;-65
2021/03/03 04:52:29;;;;;;;;;;;1.50;99.90;;;;;;6972169;28;19917;-67
2021/03/03 04:55:50;;;;;;;;;;;1.50;99.90;;;;;;6972658;28;19913;-66
2021/03/03 04:59:10;;;;;;;;;;;1.40;99.90;;;;;;6975360;28;19917;-65
2021/03/03 05:02:31;;;;;;;;;;;1.50;99.90;;;;;;6976920;28;19913;-65
2021/03/03 05:05:52;;;;;;;;;;;1.40;99.90;;;;;;6978401;28;19913;-67
2021/03/03 05:09:13;;;;;;;;;;;1.40;99.90;;;;;;6953394;28;20296;-65
2021/03/03 05:12:34;;;;;;;;;;;1.40;99.90;;;;;;6972778;28;20019;-66
2021/03/03 05:15:54;;;;;;;;;;;1.30;99.90;;;;;;6978345;28;19918;-66
2021/03/03 05:19:15;;;;;;;;;;;1.20;99.90;;;;;;6981443;28;20070;-65
2021/03/03 05:22:36;;;;;;;;;;;1.10;99.90;;;;;;6977524;28;19920;-65
2021/03/03 05:25:57;;;;;;;;;;;1.00;99.90;;;;;;6982653;28;19928;-65
2021/03/03 05:29:18;;;;;;;;;;;1.10;99.90;;;;;;6983431;28;20291;-65
2021/03/03 05:32:38;;;;;;;;;;;1.10;99.90;;;;;;6984843;28;20007;-66
2021/03/03 05:36:01;;;;;;;;;;;1.10;99.90;;;;;;6979025;28;19913;-66
2021/03/03 05:39:21;;;;;;;;;;;1.10;99.90;;;;;;6968601;28;19920;-66
2021/03/03 05:42:42;;;;;;;;;;;1.00;99.90;;;;;;6979925;28;20058;-66
2021/03/03 05:46:03;;;;;;;;;;;1.00;99.90;;;;;;6981896;28;19917;-66
2021/03/03 05:49:25;;;;;;;;;;;1.00;99.90;;;;;;6981982;28;19924;-65
2021/03/03 05:52:46;;;;;;;;;;;1.00;99.90;;;;;;6984619;28;19952;-65
2021/03/03 05:56:07;;;;;;;;;;;1.00;99.90;;;;;;6979187;28;20003;-65
2021/03/03 05:59:29;;;;;;;;;;;0.90;99.90;;;;;;6965735;28;19917;-66
2021/03/03 06:02:50;;;;;;;;;;;0.90;99.90;;;;;;6961057;28;19960;-66
2021/03/03 06:06:11;;;;;;;;;;;0.90;99.90;;;;;;6973673;28;20442;-65
2021/03/03 06:09:32;;;;;;;;;;;0.90;99.90;;;;;;6965317;28;19970;-66
2021/03/03 06:12:53;;;;;;;;;;;0.80;99.90;;;;;;6969903;28;19913;-66
2021/03/03 06:16:15;;;;;;;;;;;0.80;99.90;;;;;;6963616;28;20345;-66
2021/03/03 06:19:37;;;;;;;;;;;0.70;99.90;;;;;;6960550;28;19913;-65
2021/03/03 06:23:10;;;;;;;;;;;0.70;99.90;;;;;;6962189;28;19921;-67
2021/03/03 06:26:32;;;;;;;;;;;0.70;99.90;;;;;;6970136;28;19959;-66
2021/03/03 06:30:02;;;;;;;;;;;0.60;99.90;;;;;;6967607;28;19916;-66
2021/03/03 06:33:23;;;;;;;;;;;0.70;99.90;;;;;;6975183;28;19959;-66
2021/03/03 06:36:46;;;;;;;;;;;1.00;99.90;;;;;;6967830;28;19921;-65
2021/03/03 06:40:08;;;;;;;;;;;1.20;99.90;;;;;;6974369;28;20003;-67
2021/03/03 06:43:29;;;;;;;;;;;1.20;99.90;;;;;;6978364;28;19947;-66
2021/03/03 06:47:06;;;;;;;;;;;1.30;99.90;;;;;;6974708;28;19924;-66
2021/03/03 06:50:34;;;;;;;;;;;1.40;99.90;;;;;;6968788;28;20350;-66
2021/03/03 06:53:56;;;;;;;;;;;1.30;99.90;;;;;;6979077;28;20375;-65
2021/03/03 06:57:18;;;;;;;;;;;1.20;99.90;;;;;;6934518;28;19971;-65
2021/03/03 07:00:43;;;;;;;;;;;1.20;99.90;;;;;;6965557;28;19917;-65
2021/03/03 07:04:17;;;;;;;;;;;1.30;99.90;;;;;;6965481;28;19917;-65
2021/03/03 07:07:37;;;;;;;;;;;1.50;99.90;;;;;;6967743;28;20279;-66
2021/03/03 07:10:58;;;;;;;;;;;1.50;99.90;;;;;;6970081;28;19957;-66
2021/03/03 07:14:20;;;;;;;;;;;1.80;99.90;;;;;;6964278;28;19917;-66
2021/03/03 07:17:42;;;;;;;;;;;1.80;99.90;;;;;;6967545;28;19966;-65
2021/03/03 07:21:03;;;;;;;;;;;1.80;99.90;;;;;;6960238;28;19974;-64
2021/03/03 07:24:25;;;;;;;;;;;1.90;99.90;;;;;;6961639;28;19925;-67
2021/03/03 07:27:47;;;;;;;;;;;2.00;99.90;;;;;;6957796;28;20443;-66
2021/03/03 07:31:09;;;;;;;;;;;2.20;99.90;;;;;;6955843;28;19913;-66
2021/03/03 07:34:30;;;;;;;;;;;2.20;99.90;;;;;;6968663;28;20350;-65
2021/03/03 07:37:51;;;;;;;;;;;2.20;99.90;;;;;;6956353;28;20440;-65
2021/03/03 07:41:13;;;;;;;;;;;2.30;99.90;;;;;;6960726;28;19967;-66
2021/03/03 07:44:34;;;;;;;;;;;2.20;99.90;;;;;;6981086;28;19916;-65
2021/03/03 07:47:55;;;;;;;;;;;2.50;99.90;;;;;;6974239;28;19956;-66
2021/03/03 07:51:18;;;;;;;;;;;2.50;99.90;;;;;;6972272;28;19917;-65
2021/03/03 07:54:39;;;;;;;;;;;2.60;99.90;;;;;;6974792;28;19913;-67
2021/03/03 07:58:00;;;;;;;;;;;2.70;99.90;;;;;;6967840;28;20440;-66
2021/03/03 08:01:20;;;;;;;;;;;2.80;99.90;;;;;;6976466;28;19917;-66
2021/03/03 08:04:41;;;;;;;;;;;3.00;99.90;;;;;;6972909;28;20386;-66
2021/03/03 08:08:33;;;;;;;;;;;3.20;99.90;;;;;;6977325;28;19916;-65
2021/03/03 08:12:01;;;;;;;;;;;3.40;99.90;;;;;;6966977;28;21384;-66
2021/03/03 08:15:42;;;;;;;;;;;3.70;99.90;;;;;;6971692;28;19951;-66
2021/03/03 08:19:03;;;;;;;;;;;3.90;99.90;;;;;;6967522;28;19913;-66
2021/03/03 08:22:44;;;;;;;;;;;4.20;99.90;;;;;;6969958;28;20494;-65
2021/03/03 08:26:11;;;;;;;;;;;4.50;99.90;;;;;;6963378;28;19913;-66
2021/03/03 08:29:32;;;;;;;;;;;4.70;99.90;;;;;;6978628;28;19916;-67
2021/03/03 08:32:53;;;;;;;;;;;4.90;99.90;;;;;;6958437;28;19913;-65
2021/03/03 08:36:19;;;;;;;;;;;5.10;99.90;;;;;;6961998;28;19917;-65
2021/03/03 08:39:40;;;;;;;;;;;5.40;99.90;;;;;;6965478;28;19913;-65
2021/03/03 08:43:20;;;;;;;;;;;5.50;99.90;;;;;;6973216;28;20011;-66
2021/03/03 08:46:42;;;;;;;;;;;5.60;99.90;;;;;;6969656;28;20427;-65
2021/03/03 08:50:21;;;;;;;;;;;5.90;99.90;;;;;;6974159;28;19963;-65
2021/03/03 08:53:50;;;;;;;;;;;6.10;99.90;;;;;;6976729;28;20352;-65
2021/03/03 08:57:28;;;;;;;;;;;6.70;99.90;;;;;;6971727;28;20399;-67
2021/03/03 09:00:49;;;;;;;;;;;7.00;99.90;;;;;;6965127;28;20272;-67
2021/03/03 09:04:10;;;;;;;;;;;7.40;99.90;;;;;;6968550;28;20410;-66
2021/03/03 09:07:31;;;;;;;;;;;7.80;99.90;;;;;;6964737;28;20100;-66
2021/03/03 09:10:52;;;;;;;;;;;8.00;99.90;;;;;;6968934;28;19921;-66
2021/03/03 09:14:19;;;;;;;;;;;8.10;99.90;;;;;;6957713;28;20136;-66
2021/03/03 09:17:39;;;;;;;;;;;8.30;99.90;;;;;;6969120;28;19917;-67
2021/03/03 09:21:04;;;;;;;;;;;8.40;99.90;;;;;;6959957;28;19921;-66
2021/03/03 09:24:25;;;;;;;;;;;8.50;99.90;;;;;;6964339;28;20009;-66
2021/03/03 09:27:47;;;;;;;;;;;8.60;99.90;;;;;;6971812;28;19924;-67
2021/03/03 09:31:08;;;;;;;;;;;8.90;99.90;;;;;;6966739;28;19959;-66
2021/03/03 09:34:29;;;;;;;;;;;9.40;99.90;;;;;;6969990;28;19913;-65
2021/03/03 09:37:49;;;;;;;;;;;9.80;99.90;;;;;;6971774;28;20300;-66
2021/03/03 09:41:10;;;;;;;;;;;10.20;99.90;;;;;;6971850;28;19913;-67
2021/03/03 09:44:48;;;;;;;;;;;10.30;99.90;;;;;;6981802;28;19913;-65
2021/03/03 09:48:10;;;;;;;;;;;10.60;99.90;;;;;;6972561;28;19924;-67
2021/03/03 09:51:42;;;;;;;;;;;11.10;99.90;;;;;;6971511;28;19913;-66
2021/03/03 09:55:05;;;;;;;;;;;11.30;99.90;;;;;;6964374;28;20513;-66
2021/03/03 09:58:25;;;;;;;;;;;11.50;99.90;;;;;;6970357;28;19978;-66
2021/03/03 10:01:46;;;;;;;;;;;11.70;99.90;;;;;;6956863;28;19913;-65
2021/03/03 10:05:07;;;;;;;;;;;11.80;99.90;;;;;;6967853;28;20393;-66
2021/03/03 10:08:28;;;;;;;;;;;11.80;99.90;;;;;;6958579;28;20433;-66
2021/03/03 10:11:49;;;;;;;;;;;12.00;99.90;;;;;;6962536;28;19920;-66
2021/03/03 10:15:10;;;;;;;;;;;12.00;99.90;;;;;;6969008;28;19920;-67
2021/03/03 10:18:31;;;;;;;;;;;12.00;99.90;;;;;;6956834;28;19913;-66
2021/03/03 10:21:52;;;;;;;;;;;12.20;99.90;;;;;;6956628;28;20376;-66
2021/03/03 10:25:14;;;;;;;;;;;12.40;99.90;;;;;;6961866;28;20446;-66
2021/03/03 10:28:36;;;;;;;;;;;12.70;99.90;;;;;;6977109;28;20027;-66
2021/03/03 10:32:17;;;;;;;;;;;12.80;99.90;;;;;;6970254;28;19927;-67
2021/03/03 10:35:44;;;;;;;;;;;12.70;99.90;;;;;;6966376;28;19917;-66
2021/03/03 10:39:05;;;;;;;;;;;12.90;99.90;;;;;;6964447;28;19964;-69
2021/03/03 10:42:27;;;;;;;;;;;13.20;99.90;;;;;;6968537;28;19913;-66
2021/03/03 10:45:49;;;;;;;;;;;13.60;99.90;;;;;;6979905;28;19920;-66
2021/03/03 10:49:11;;;;;;;;;;;13.90;99.90;;;;;;6981619;28;19917;-66
2021/03/03 10:52:31;;;;;;;;;;;14.40;99.90;;;;;;6972041;28;19917;-66
2021/03/03 10:55:52;;;;;;;;;;;14.80;99.90;;;;;;6968864;28;20002;-66
2021/03/03 10:59:21;;;;;;;;;;;15.50;99.90;;;;;;6962565;28;19975;-67
2021/03/03 11:02:42;;;;;;;;;;;16.00;99.90;;;;;;6951492;28;19923;-66
2021/03/03 11:06:03;;;;;;;;;;;16.20;99.90;;;;;;6961196;28;19917;-68
2021/03/03 11:09:23;;;;;;;;;;;16.20;99.90;;;;;;6961907;28;19920;-67
2021/03/03 11:12:44;;;;;;;;;;;16.30;99.90;;;;;;6952755;28;19967;-66
2021/03/03 11:16:05;;;;;;;;;;;16.90;99.90;;;;;;6947605;28;19920;-67
2021/03/03 11:19:27;;;;;;;;;;;18.00;99.90;;;;;;6951838;28;20384;-66
2021/03/03 11:22:48;;;;;;;;;;;18.80;99.90;;;;;;6966692;28;19913;-66
2021/03/03 11:26:09;;;;;;;;;;;20.00;99.90;;;;;;6968988;28;20007;-66
2021/03/03 11:29:29;;;;;;;;;;;20.10;99.90;;;;;;6962543;28;19917;-66
2021/03/03 11:32:51;;;;;;;;;;;20.80;99.90;;;;;;6982052;28;19959;-67
2021/03/03 11:36:12;;;;;;;;;;;21.20;99.90;;;;;;6984448;28;19970;-65
2021/03/03 11:39:32;;;;;;;;;;;21.80;99.20;;;;;;6987182;28;19916;-66
2021/03/03 11:42:53;;;;;;;;;;;22.00;98.70;;;;;;6982382;28;19923;-66
2021/03/03 11:46:14;;;;;;;;;;;22.20;98.70;;;;;;6974591;28;20391;-66
2021/03/03 11:49:34;;;;;;;;;;;22.30;98.40;;;;;;6976081;28;20393;-67
2021/03/03 11:52:55;;;;;;;;;;;22.90;97.80;;;;;;6985585;28;19983;-66
2021/03/03 11:56:16;;;;;;;;;;;23.20;97.70;;;;;;6985414;28;20315;-68
2021/03/03 11:59:36;;;;;;;;;;;23.50;97.30;;;;;;6989517;28;20335;-67
2021/03/03 12:02:57;;;;;;;;;;;24.20;96.80;;;;;;6967411;28;20014;-67
2021/03/03 12:06:19;;;;;;;;;;;24.40;95.00;;;;;;6960392;28;19967;-67
2021/03/03 12:09:39;;;;;;;;;;;24.60;95.70;;;;;;6959742;28;20467;-67
2021/03/03 12:13:00;;;;;;;;;;;25.90;94.90;;;;;;6960881;28;19913;-67
2021/03/03 12:16:21;;;;;;;;;;;25.50;94.30;;;;;;6962149;28;19966;-66
2021/03/03 12:19:42;;;;;;;;;;;23.80;94.50;;;;;;6963607;28;19956;-66
2021/03/03 12:23:02;;;;;;;;;;;21.70;95.00;;;;;;6966124;28;19956;-69
2021/03/03 12:26:23;;;;;;;;;;;19.90;96.30;;;;;;6964833;28;19943;-67
2021/03/03 12:29:44;;;;;;;;;;;19.40;97.50;;;;;;6962889;28;20009;-67
2021/03/03 12:33:04;;;;;;;;;;;20.20;97.60;;;;;;6964410;28;20319;-68
2021/03/03 12:36:25;;;;;;;;;;;22.00;98.10;;;;;;6956441;28;19917;-66
2021/03/03 12:39:46;;;;;;;;;;;25.30;96.10;;;;;;6958179;28;19948;-67
2021/03/03 12:43:06;;;;;;;;;;;26.70;94.30;;;;;;6968192;28;19917;-66
2021/03/03 12:46:28;;;;;;;;;;;27.00;94.40;;;;;;6965870;28;19917;-67
2021/03/03 12:49:49;;;;;;;;;;;25.20;93.90;;;;;;6967521;28;20003;-67
2021/03/03 12:53:10;;;;;;;;;;;25.40;94.00;;;;;;6972970;28;20303;-67
2021/03/03 12:56:30;;;;;;;;;;;25.60;95.00;;;;;;6971002;28;19913;-67
2021/03/03 12:59:51;;;;;;;;;;;26.80;94.20;;;;;;6968170;28;19916;-67
2021/03/03 13:03:12;;;;;;;;;;;25.30;93.50;;;;;;6974205;28;19924;-67
2021/03/03 13:06:33;;;;;;;;;;;25.60;94.40;;;;;;6979047;28;20344;-67
2021/03/03 13:09:53;;;;;;;;;;;26.80;93.30;;;;;;6984921;28;20007;-67
2021/03/03 13:13:14;;;;;;;;;;;26.70;93.40;;;;;;6958516;28;19913;-70
2021/03/03 13:16:35;;;;;;;;;;;25.80;93.20;;;;;;6966347;28;20003;-68
2021/03/03 13:19:55;;;;;;;;;;;23.20;94.00;;;;;;6966173;28;19916;-67
2021/03/03 13:23:16;;;;;;;;;;;21.50;95.30;;;;;;6966441;28;19913;-66
2021/03/03 13:26:37;;;;;;;;;;;21.00;96.20;;;;;;6964010;28;20485;-68
2021/03/03 13:29:58;;;;;;;;;;;22.00;96.80;;;;;;6961084;28;19925;-67
2021/03/03 13:33:19;;;;;;;;;;;22.20;96.10;;;;;;6962000;28;19913;-66
2021/03/03 13:36:40;;;;;;;;;;;22.30;95.90;;;;;;6983132;28;19967;-68
2021/03/03 13:40:01;;;;;;;;;;;23.00;95.20;;;;;;6966695;28;19920;-69
2021/03/03 13:43:22;;;;;;;;;;;24.30;95.10;;;;;;6971029;28;20311;-66
2021/03/03 13:46:42;;;;;;;;;;;25.30;93.70;;;;;;6977224;28;19927;-67
2021/03/03 13:50:04;;;;;;;;;;;25.90;93.60;;;;;;6973738;28;19974;-67
2021/03/03 13:53:25;;;;;;;;;;;26.10;91.70;;;;;;6970825;28;19913;-67
2021/03/03 13:56:45;;;;;;;;;;;25.30;92.30;;;;;;6976650;28;20303;-66
2021/03/03 14:00:07;;;;;;;;;;;24.60;91.70;;;;;;6972843;28;20372;-67
2021/03/03 14:03:28;;;;;;;;;;;22.40;92.60;;;;;;6967049;28;19916;-66
2021/03/03 14:06:49;;;;;;;;;;;21.30;93.90;;;;;;6965062;28;19935;-66
2021/03/03 14:10:10;;;;;;;;;;;20.10;94.30;;;;;;6962786;28;19921;-65
2021/03/03 14:13:30;;;;;;;;;;;19.60;94.90;;;;;;6962354;28;19913;-66
2021/03/03 14:16:59;;;;;;;;;;;19.00;95.30;;;;;;6964723;28;20293;-65
2021/03/03 14:20:20;;;;;;;;;;;18.80;95.70;;;;;;6966310;28;19920;-66
2021/03/03 14:23:40;;;;;;;;;;;18.60;95.60;;;;;;6967097;28;19979;-68
2021/03/03 14:27:01;;;;;;;;;;;18.80;96.10;;;;;;6965934;28;19991;-65
2021/03/03 14:30:22;;;;;;;;;;;18.80;95.80;;;;;;6962861;28;19916;-67
2021/03/03 14:33:43;;;;;;;;;;;19.10;96.30;;;;;;6962704;28;19917;-66
2021/03/03 14:37:04;;;;;;;;;;;19.40;95.70;;;;;;6956758;28;19912;-66
2021/03/03 14:40:25;;;;;;;;;;;19.50;95.80;;;;;;6965295;28;19913;-66
2021/03/03 14:43:45;;;;;;;;;;;19.80;95.30;;;;;;6968695;28;20307;-65
2021/03/03 14:47:06;;;;;;;;;;;19.40;95.50;;;;;;6974967;28;19913;-68
2021/03/03 14:50:27;;;;;;;;;;;19.40;95.70;;;;;;6978343;28;19912;-68
2021/03/03 14:53:47;;;;;;;;;;;19.10;95.70;;;;;;6970182;28;19913;-67
2021/03/03 14:57:08;;;;;;;;;;;18.90;96.30;;;;;;6973032;28;20001;-67
2021/03/03 15:00:30;;;;;;;;;;;19.00;96.80;;;;;;6971691;28;19917;-67
2021/03/03 15:03:50;;;;;;;;;;;18.60;97.50;;;;;;6968829;28;20299;-68
2021/03/03 15:07:11;;;;;;;;;;;17.90;96.60;;;;;;6975071;28;19927;-67
2021/03/03 15:10:32;;;;;;;;;;;17.30;96.90;;;;;;6980345;28;20383;-68
2021/03/03 15:13:52;;;;;;;;;;;17.20;97.40;;;;;;6973298;28;19923;-68
2021/03/03 15:17:13;;;;;;;;;;;16.90;97.50;;;;;;6967417;28;19930;-67
2021/03/03 15:20:35;;;;;;;;;;;16.80;97.70;;;;;;6964105;28;21371;-68
2021/03/03 15:23:56;;;;;;;;;;;16.70;98.20;;;;;;6963430;28;19917;-67
2021/03/03 15:27:17;;;;;;;;;;;16.50;98.40;;;;;;6962579;28;20360;-67
2021/03/03 15:30:38;;;;;;;;;;;16.30;98.60;;;;;;6959563;28;19919;-68
2021/03/03 15:33:59;;;;;;;;;;;16.20;99.40;;;;;;6950105;28;19913;-68
2021/03/03 15:37:19;;;;;;;;;;;16.10;99.50;;;;;;6946647;28;19912;-68
2021/03/03 15:40:40;;;;;;;;;;;16.00;99.90;;;;;;6962687;28;19912;-68
2021/03/03 15:44:01;;;;;;;;;;;15.70;99.90;;;;;;6982250;28;19917;-67
2021/03/03 15:47:21;;;;;;;;;;;15.70;99.90;;;;;;6962733;28;19966;-67
2021/03/03 15:50:42;;;;;;;;;;;15.40;99.90;;;;;;6969836;28;19916;-68
2021/03/03 15:54:03;;;;;;;;;;;15.20;99.90;;;;;;6966482;28;20061;-68
2021/03/03 15:57:24;;;;;;;;;;;15.00;99.90;;;;;;6962943;28;20003;-67
2021/03/03 16:00:44;;;;;;;;;;;14.80;99.90;;;;;;6975972;28;19923;-69
2021/03/03 16:04:06;;;;;;;;;;;14.70;99.90;;;;;;6980688;28;19913;-68
2021/03/03 16:07:27;;;;;;;;;;;14.60;99.90;;;;;;6980256;28;19975;-68
2021/03/03 16:10:47;;;;;;;;;;;14.40;99.90;;;;;;6981973;28;19920;-68
2021/03/03 16:14:08;;;;;;;;;;;14.20;99.90;;;;;;6979344;28;20011;-69
2021/03/03 16:17:29;;;;;;;;;;;14.10;99.90;;;;;;6982590;28;19924;-70
2021/03/03 16:20:49;;;;;;;;;;;14.00;99.90;;;;;;6986619;28;20385;-67
2021/03/03 16:24:10;;;;;;;;;;;13.80;99.90;;;;;;6989604;28;19919;-67
2021/03/03 16:27:31;;;;;;;;;;;13.60;99.90;;;;;;6982268;28;19951;-68
2021/03/03 16:30:52;;;;;;;;;;;13.50;99.90;;;;;;6973897;28;19916;-68
2021/03/03 16:34:13;;;;;;;;;;;13.30;99.90;;;;;;6987103;28;19974;-68
2021/03/03 16:37:34;;;;;;;;;;;13.30;99.90;;;;;;6985372;28;20295;-69
2021/03/03 16:40:55;;;;;;;;;;;13.10;99.90;;;;;;6987999;28;19983;-68
2021/03/03 16:44:15;;;;;;;;;;;12.90;99.90;;;;;;6990329;28;20383;-67
2021/03/03 16:47:36;;;;;;;;;;;12.80;99.90;;;;;;6987435;28;20544;-68
2021/03/03 16:50:57;;;;;;;;;;;12.70;99.90;;;;;;6988710;28;19920;-67
2021/03/03 16:54:17;;;;;;;;;;;12.50;99.90;;;;;;6981296;28;19921;-66
2021/03/03 16:57:38;;;;;;;;;;;12.40;99.90;;;;;;6981658;28;19912;-68
2021/03/03 17:00:59;;;;;;;;;;;12.30;99.90;;;;;;6984927;28;20020;-70
2021/03/03 17:04:19;;;;;;;;;;;12.20;99.90;;;;;;6986406;28;20368;-66
2021/03/03 17:07:40;;;;;;;;;;;12.10;99.90;;;;;;6983065;28;20398;-67
2021/03/03 17:11:01;;;;;;;;;;;12.00;99.90;;;;;;6971530;28;19925;-67
2021/03/03 17:14:22;;;;;;;;;;;12.10;99.90;;;;;;6968852;28;20284;-66
2021/03/03 17:17:43;;;;;;;;;;;12.00;99.90;;;;;;6971206;28;20339;-68
2021/03/03 17:21:04;;;;;;;;;;;11.90;99.90;;;;;;6970701;28;19963;-69
2021/03/03 17:24:25;;;;;;;;;;;11.80;99.90;;;;;;6951614;28;19948;-68
2021/03/03 17:27:45;;;;;;;;;;;11.70;99.90;;;;;;6971236;28;19924;-69
2021/03/03 17:31:06;;;;;;;;;;;11.60;99.90;;;;;;6985520;28;19923;-69
2021/03/03 17:34:27;;;;;;;;;;;11.50;99.90;;;;;;6981242;28;19924;-69
2021/03/03 17:37:47;;;;;;;;;;;11.50;99.90;;;;;;6967118;28;19913;-69
2021/03/03 17:41:08;;;;;;;;;;;11.30;99.90;;;;;;6963078;28;19976;-70
2021/03/03 17:44:29;;;;;;;;;;;11.20;99.90;;;;;;6970093;28;20203;-70
2021/03/03 17:47:50;;;;;;;;;;;11.10;99.90;;;;;;6968389;28;20014;-68
2021/03/03 17:51:11;;;;;;;;;;;11.00;99.90;;;;;;6959402;28;19917;-68
2021/03/03 17:54:31;;;;;;;;;;;10.90;99.90;;;;;;6960509;28;19940;-69
2021/03/03 17:57:52;;;;;;;;;;;10.80;99.90;;;;;;6965690;28;19923;-69
2021/03/03 18:01:13;;;;;;;;;;;10.60;99.90;;;;;;6956381;28;19932;-68
2021/03/03 18:04:33;;;;;;;;;;;10.50;99.90;;;;;;6967912;28;19913;-69
2021/03/03 18:07:54;;;;;;;;;;;10.40;99.90;;;;;;6959521;28;19923;-69
2021/03/03 18:11:14;;;;;;;;;;;10.30;99.90;;;;;;6962687;28;19920;-68
2021/03/03 18:14:35;;;;;;;;;;;10.20;99.90;;;;;;6963173;28;20039;-69
2021/03/03 18:17:57;;;;;;;;;;;10.20;99.90;;;;;;6963238;28;19921;-69
2021/03/03 18:21:19;;;;;;;;;;;10.10;99.90;;;;;;6961617;28;19917;-69
2021/03/03 18:24:39;;;;;;;;;;;10.10;99.90;;;;;;6966355;28;19924;-68
2021/03/03 18:28:00;;;;;;;;;;;10.00;99.90;;;;;;6965966;28;19917;-69
2021/03/03 18:31:21;;;;;;;;;;;9.90;99.90;;;;;;6962565;28;20372;-66
2021/03/03 18:34:41;;;;;;;;;;;9.80;99.90;;;;;;6965817;28;20395;-68
2021/03/03 18:38:02;;;;;;;;;;;9.70;99.90;;;;;;6967807;28;19964;-69
2021/03/03 18:41:23;;;;;;;;;;;9.70;99.90;;;;;;6969122;28;19916;-68
2021/03/03 18:44:46;;;;;;;;;;;9.60;99.90;;;;;;6969350;28;19994;-69
2021/03/03 18:48:07;;;;;;;;;;;9.50;99.90;;;;;;6957784;28;20002;-68
2021/03/03 18:51:28;;;;;;;;;;;9.50;99.90;;;;;;6966706;28;20419;-69
2021/03/03 18:54:49;;;;;;;;;;;9.50;99.90;;;;;;6967302;28;19913;-68
2021/03/03 18:58:09;;;;;;;;;;;9.30;99.90;;;;;;6968198;28;19919;-68
2021/03/03 19:01:30;;;;;;;;;;;9.20;99.90;;;;;;6946051;28;19913;-68
2021/03/03 19:04:51;;;;;;;;;;;9.10;99.90;;;;;;6944350;28;19913;-68
2021/03/03 19:08:11;;;;;;;;;;;9.00;99.90;;;;;;6952165;28;20391;-69
2021/03/03 19:11:32;;;;;;;;;;;8.90;99.90;;;;;;6949385;28;19912;-69
2021/03/03 19:14:54;;;;;;;;;;;8.80;99.90;;;;;;6948415;28;19959;-68
2021/03/03 19:18:14;;;;;;;;;;;8.70;99.90;;;;;;6967917;28;19967;-68
2021/03/03 19:21:35;;;;;;;;;;;8.70;99.90;;;;;;6962265;28;20413;-68
2021/03/03 19:24:56;;;;;;;;;;;8.60;99.90;;;;;;6954661;28;20008;-69
2021/03/03 19:28:17;;;;;;;;;;;8.50;99.90;;;;;;6968245;28;20390;-68
2021/03/03 19:31:38;;;;;;;;;;;8.40;99.90;;;;;;6957865;28;19920;-67
2021/03/03 19:34:59;;;;;;;;;;;8.40;99.90;;;;;;6941088;28;20296;-67
2021/03/03 19:38:19;;;;;;;;;;;8.20;99.90;;;;;;6952606;28;19914;-68
2021/03/03 19:41:40;;;;;;;;;;;8.00;99.90;;;;;;6947117;28;19920;-68
2021/03/03 19:45:01;;;;;;;;;;;7.70;99.90;;;;;;6966256;28;19920;-68